Terminal Aerodrome Forecast
Issued by NWS Mt. Holly, NJ

Home | Current Version | Previous Version | Text Only | Print | Product List | Glossary On
Versions: 1 2 3 4 5 6 7 8 9 10 11 12 13 14 15 16 17 18 19 20 21 22 23 24 25 26 27
000
FTUS41 KPHI 161121
TAFPHL
TAF
KPHL 161121Z 1612/1718 VRB03KT P6SM BKN250
     FM161500 23005KT P6SM BKN200
     FM162200 21005KT P6SM OVC100
     FM162300 VRB04KT P6SM OVC050
     FM170800 15003KT P6SM OVC025
     FM171000 14004KT 4SM BR OVC008
     FM171500 12005KT 2SM -DZ BR OVC004=

USA.gov is the U.S. government's official web portal to all federal, state and local government web resources and services.